• Join FlightAware (Why Join?)
  • Login
  • US Flag 
04:10AM EDT


 

Airport Tracker/Info


-or-


 

Live Flight TrackerFlight Track Log ✈ AAL1326 ✈ 08-May-2013 ✈ KORD - KFLL

Flight Track Log - Related Links

Times and Time Zones

All times are in EDT time to prevent confusion due to time zone crossing. See the AAL1326 flight status page for this flight to view local times or setup timezone preferences in your user account.

Time Position Orientation Groundspeed Altitude Reporting Facility
EDT Latitude Longitude Course Direction KTS MPH feet Rate Location/Type
06:57PM 41.9450 -87.9100 184° South 177 204 1,600  Level FlightAware
06:57PM 41.9340 -87.9160 202° Southwest 172 198 2,300 2,580 Climbing FlightAware
06:58PM 41.9210 -87.9170 183° South 184 212 2,900 1,980 Climbing FlightAware
06:58PM 41.8940 -87.9160 178° South 220 253 3,800 2,100 Climbing FlightAware
06:58PM 41.8760 -87.9150 178° South 240 276 4,500 2,520 Climbing FlightAware
06:59PM 41.8420 -87.9110 175° South 267 307 5,700 2,520 Climbing FlightAware
06:59PM 41.8300 -87.9100 176° South 272 313 6,200 3,420 Climbing FlightAware
06:59PM 41.7970 -87.9000 167° South 286 329 7,700 3,480 Climbing FlightAware
07:00PM 41.7530 -87.8800 161° South 293 337 9,700 3,420 Climbing FlightAware
07:01PM 41.7010 -87.8550 160° South 298 343 12,000 3,120 Climbing FlightAware
07:01PM 41.6470 -87.8300 161° South 315 362 13,900 2,520 Climbing FlightAware
07:02PM 41.5840 -87.8010 161° South 341 392 15,600 2,160 Climbing FlightAware
07:03PM 41.5210 -87.7710 160° South 368 423 17,000 2,280 Climbing FlightAware
07:03PM 41.4630 -87.7450 161° South 377 434 18,500 2,640 Climbing FlightAware
07:04PM 41.3930 -87.7250 168° South 386 444 20,300 2,400 Climbing FlightAware
07:05PM 41.3170 -87.7250 180° South 398 458 21,900 2,100 Climbing FlightAware
07:05PM 41.2420 -87.7260 181° South 408 470 23,300 2,220 Climbing FlightAware
07:06PM 41.1600 -87.7200 177° South 417 480 24,900 2,160 Climbing FlightAware
07:07PM 41.0730 -87.7080 174° South 423 487 26,400 2,160 Climbing FlightAware
07:08PM 40.9890 -87.6970 174° South 417 480 28,200 1,620 Climbing FlightAware
07:08PM 40.9130 -87.6870 174° South 437 503 28,700 1,020 Climbing FlightAware
07:09PM 40.8270 -87.6750 174° South 452 520 29,600 1,680 Climbing FlightAware
07:10PM 40.7370 -87.6630 174° South 447 514 31,100 2,040 Climbing FlightAware
07:10PM 40.6690 -87.6540 174° South 445 512 32,200 1,620 Climbing FlightAware
07:11PM 40.5680 -87.6410 174° South 446 513 33,300 1,200 Climbing FlightAware
07:12PM 40.4790 -87.6290 174° South 453 521 34,100 780 Climbing FlightAware
07:13PM 40.3630 -87.6130 174° South 459 528 34,600 1,020 Climbing FlightAware
07:13PM 40.2660 -87.5750 163° South 477 549 35,800 1,380 Climbing FlightAware
07:14PM 40.1860 -87.5240 154° Southeast 474 545 36,600 780 Climbing FlightAware
07:15PM 40.0940 -87.4660 154° Southeast 474 545 37,000 240 Climbing FlightAware
07:16PM 39.9940 -87.4030 154° Southeast 475 547 37,000  Level FlightAware
07:16PM 39.9100 -87.3470 153° Southeast 479 551 37,000  Level FlightAware
07:17PM 39.8480 -87.3040 152° Southeast 479 551 37,000  Level FlightAware
07:18PM 39.7570 -87.2440 153° Southeast 483 556 37,000  Level FlightAware
07:18PM 39.6830 -87.1940 153° Southeast 485 558 37,000  Level FlightAware
07:19PM 39.5530 -87.1180 156° South 483 556 37,000  Level FlightAware
07:20PM 39.4620 -87.0790 162° South 485 558 37,000  Level FlightAware
07:21PM 39.3740 -87.0420 162° South 486 559 37,000  Level FlightAware
07:22PM 39.2850 -87.0040 162° South 486 559 37,000  Level FlightAware
07:22PM 39.1850 -86.9640 163° South 488 562 37,000  Level FlightAware
07:23PM 39.0980 -86.9280 162° South 488 562 37,000  Level FlightAware
07:24PM 39.0010 -86.8870 162° South 487 560 37,000  Level FlightAware
07:24PM 38.9210 -86.8530 162° South 487 560 37,000  Level FlightAware
07:25PM 38.8330 -86.8160 162° South 487 560 37,000  Level FlightAware
07:26PM 38.7370 -86.7770 162° South 488 562 37,000  Level FlightAware
07:26PM 38.6480 -86.7410 162° South 489 563 37,000  Level FlightAware
07:27PM 38.5540 -86.7030 162° South 489 563 37,000  Level FlightAware
07:28PM 38.4680 -86.6680 162° South 491 565 37,000  Level FlightAware
07:29PM 38.3810 -86.6330 162° South 493 567 37,000  Level FlightAware
07:29PM 38.2830 -86.5930 162° South 494 568 37,000  Level FlightAware
07:30PM 38.1990 -86.5360 152° Southeast 498 573 37,000  Level FlightAware
07:31PM 38.1160 -86.4630 145° Southeast 498 573 37,000  Level FlightAware
07:31PM 38.0400 -86.3960 145° Southeast 497 572 37,000  Level FlightAware
07:32PM 37.9540 -86.3230 146° Southeast 497 572 37,000  Level FlightAware
07:33PM 37.8730 -86.2770 156° South 495 570 37,000  Level FlightAware
07:33PM 37.7890 -86.2380 160° South 495 570 37,000  Level FlightAware
07:34PM 37.6890 -86.1920 160° South 493 567 37,000  Level FlightAware
07:35PM 37.6070 -86.1550 160° South 493 567 37,000  Level FlightAware
07:36PM 37.5160 -86.1130 160° South 492 566 37,000  Level FlightAware
07:36PM 37.4340 -86.0760 160° South 491 565 37,000  Level FlightAware
07:37PM 37.3360 -86.0320 160° South 490 564 37,000  Level FlightAware
07:37PM 37.2974 -86.0141 160° South 490 564 37,000  Level FlightAware ADS-B
07:38PM 37.2287 -85.9831 160° South 490 564 37,000  Level FlightAware ADS-B
07:38PM 37.1490 -85.9470 160° South 490 564 37,000  Level FlightAware
07:39PM 37.0550 -85.9050 160° South 491 565 37,000  Level FlightAware
07:40PM 36.9293 -85.8482 160° South 493 567 37,000  Level FlightAware ADS-B
07:41PM 36.8497 -85.8127 160° South 494 568 37,000  Level FlightAware ADS-B
07:41PM 36.7835 -85.7833 160° South 495 570 37,000  Level FlightAware ADS-B
07:42PM 36.7000 -85.7460 160° South 494 568 37,000  Level FlightAware
07:42PM 36.6741 -85.7342 160° South 494 568 37,000  Level FlightAware ADS-B
07:43PM 36.6078 -85.7048 160° South 494 568 37,000  Level FlightAware ADS-B
07:43PM 36.5426 -85.6762 161° South 494 568 37,000  Level FlightAware ADS-B
07:44PM 36.3895 -85.6088 160° South 495 570 37,000  Level FlightAware ADS-B
07:45PM 36.3238 -85.5801 161° South 495 570 37,000  Level FlightAware ADS-B
07:46PM 36.2069 -85.5287 160° South 496 571 37,000  Level FlightAware ADS-B
07:46PM 36.1417 -85.4999 160° South 495 570 37,000  Level FlightAware ADS-B
07:47PM 36.0767 -85.4714 160° South 496 571 37,000  Level FlightAware ADS-B
07:47PM 36.0112 -85.4428 161° South 495 570 37,000  Level FlightAware ADS-B
07:48PM 35.9455 -85.4141 161° South 496 571 37,000  Level FlightAware ADS-B
07:48PM 35.8807 -85.3860 161° South 494 568 37,000  Level FlightAware ADS-B
07:49PM 35.8135 -85.3569 161° South 494 568 37,000  Level FlightAware ADS-B
07:49PM 35.7376 -85.3241 161° South 493 567 37,000  Level FlightAware ADS-B
07:50PM 35.6732 -85.2962 161° South 491 565 37,000  Level FlightAware ADS-B
07:50PM 35.6084 -85.2682 161° South 490 564 37,000  Level FlightAware ADS-B
07:51PM 35.5429 -85.2399 161° South 489 563 37,000  Level FlightAware ADS-B
07:51PM 35.4783 -85.2122 161° South 488 562 37,000  Level FlightAware ADS-B
07:52PM 35.4124 -85.1839 161° South 486 559 37,000  Level FlightAware ADS-B
07:52PM 35.3375 -85.1519 161° South 485 558 37,000  Level FlightAware ADS-B
07:53PM 35.2446 -85.1120 161° South 483 556 37,000  Level FlightAware ADS-B
07:54PM 35.1788 -85.0839 161° South 483 556 37,000  Level FlightAware ADS-B
07:55PM 35.0300 -85.0200 161° South 481 554 37,000  Level FlightAware
07:56PM 34.9420 -84.9830 161° South 479 551 37,000  Level FlightAware
07:56PM 34.8560 -84.9470 161° South 479 551 37,000  Level FlightAware
07:57PM 34.7710 -84.9110 161° South 478 550 37,000  Level FlightAware
07:57PM 34.7426 -84.8988 161° South 478 550 37,000  Level FlightAware ADS-B
07:58PM 34.6788 -84.8717 161° South 480 552 37,000  Level FlightAware ADS-B
07:58PM 34.6067 -84.8414 161° South 480 552 37,000  Level FlightAware ADS-B
07:59PM 34.5314 -84.8098 161° South 480 552 37,000  Level FlightAware ADS-B
07:59PM 34.4648 -84.7818 161° South 480 552 37,000  Level FlightAware ADS-B
08:00PM 34.3916 -84.7511 161° South 481 554 37,000  Level FlightAware ADS-B
08:00PM 34.3238 -84.7227 161° South 482 555 37,000  Level FlightAware ADS-B
08:01PM 34.2040 -84.6730 161° South 476 548 37,000  Level FlightAware
08:02PM 34.1200 -84.6380 161° South 476 548 37,000  Level FlightAware
08:03PM 34.0240 -84.5980 161° South 477 549 37,000  Level FlightAware
08:04PM 33.9410 -84.5640 161° South 476 548 37,000  Level FlightAware
08:04PM 33.8410 -84.5220 161° South 478 550 37,000  Level FlightAware
08:05PM 33.7560 -84.4880 162° South 478 550 37,000  Level FlightAware
08:06PM 33.6590 -84.4480 161° South 478 550 37,000  Level FlightAware
08:06PM 33.5790 -84.4150 161° South 476 548 37,000  Level FlightAware
08:07PM 33.4580 -84.3640 161° South 482 555 37,000  Level FlightAware
08:08PM 33.3610 -84.3230 161° South 481 554 37,000  Level FlightAware
08:09PM 33.2770 -84.2880 161° South 479 551 37,000  Level FlightAware
08:09PM 33.2070 -84.2590 161° South 479 551 37,000  Level FlightAware
08:10PM 33.1110 -84.2190 161° South 478 550 37,000  Level FlightAware
08:11PM 33.0330 -84.1870 161° South 478 550 37,000  Level FlightAware
08:12PM 32.9190 -84.1390 161° South 478 550 37,000  Level FlightAware
08:12PM 32.8170 -84.0980 161° South 478 550 37,000  Level FlightAware
08:13PM 32.7380 -84.0650 161° South 478 550 37,000  Level FlightAware
08:14PM 32.6590 -84.0330 161° South 479 551 37,000  Level FlightAware
08:15PM 32.5500 -83.9880 161° South 479 551 37,000  Level FlightAware
08:15PM 32.4500 -83.9470 161° South 480 552 37,000  Level FlightAware
08:16PM 32.3310 -83.8980 161° South 473 544 37,000  Level FlightAware
08:17PM 32.2610 -83.8680 160° South 473 544 37,000  Level FlightAware
08:18PM 32.1910 -83.8380 160° South 473 544 37,000  Level FlightAware
08:19PM 32.1040 -83.8000 160° South 473 544 37,000  Level FlightAware
08:19PM 32.0340 -83.7700 160° South 473 544 37,000  Level FlightAware
08:20PM 31.9640 -83.7400 160° South 473 544 37,000  Level FlightAware
08:21PM 31.8940 -83.7100 160° South 473 544 37,000  Level FlightAware
08:21PM 31.8240 -83.6800 160° South 473 544 37,000  Level FlightAware
08:22PM 31.7370 -83.6430 160° South 473 544 37,000  Level FlightAware
08:23PM 31.6670 -83.6130 160° South 473 544 37,000  Level FlightAware
08:23PM 31.5970 -83.5830 160° South 473 544 37,000  Level FlightAware
08:24PM 31.5270 -83.5530 160° South 473 544 37,000  Level FlightAware
08:25PM 31.4570 -83.5230 160° South 473 544 37,000  Level FlightAware
08:26PM 31.3700 -83.4860 160° South 473 544 37,000  Level FlightAware
08:27PM 31.0214 -83.3750 160° South 477 549 37,000  Level Jacksonville Center
08:28PM 30.9006 -83.3258 161° South 472 543 37,000  Level Jacksonville Center
08:29PM 30.7794 -83.2769 161° South 465 535 37,000  Level Jacksonville Center
08:30PM 30.6608 -83.2186 157° South 460 529 37,000 -60 Level Jacksonville Center
08:31PM 30.5378 -83.1531 155° Southeast 474 545 36,900  Descending Jacksonville Center
08:36PM 29.8150 -82.8990 155° Southeast 460 529 37,000  Climbing FlightAware
08:37PM 29.7320 -82.8800 169° South 460 529 37,000  Level FlightAware
08:38PM 29.6610 -82.8650 170° South 460 529 37,000  Level FlightAware
08:38PM 29.5900 -82.8490 169° South 460 529 37,000  Level FlightAware
08:39PM 29.4660 -82.8250 170° South 461 531 37,000  Level FlightAware
08:40PM 29.3710 -82.8050 170° South 461 531 37,000  Level FlightAware
08:40PM 29.2970 -82.7900 170° South 456 525 37,000  Level FlightAware
08:41PM 29.2050 -82.7700 169° South 457 526 37,000  Level FlightAware
08:42PM 29.1310 -82.7540 169° South 467 537 37,000  Level FlightAware
08:43PM 29.0230 -82.7320 170° South 469 540 37,000  Level FlightAware
08:43PM 28.9460 -82.7160 170° South 469 540 37,000  Level FlightAware
08:44PM 28.8560 -82.6980 170° South 469 540 37,000  Level FlightAware
08:45PM 28.7530 -82.6760 169° South 468 539 37,000  Level FlightAware
08:45PM 28.6660 -82.6580 170° South 465 535 37,000  Level FlightAware
08:46PM 28.5750 -82.6390 170° South 465 535 37,000  Level FlightAware
08:47PM 28.4790 -82.6190 170° South 463 533 37,000  Level FlightAware
08:48PM 28.3910 -82.6010 170° South 460 529 37,000  Level FlightAware
08:48PM 28.2970 -82.5820 170° South 458 527 37,000  Level FlightAware
08:49PM 28.2140 -82.5650 170° South 457 526 37,000  Level FlightAware
08:50PM 28.1280 -82.5470 170° South 458 527 37,000  Level FlightAware
08:50PM 28.0360 -82.5280 170° South 457 526 37,000  Level FlightAware
08:51PM 27.9510 -82.5090 169° South 459 528 37,000 -720 Level FlightAware
08:52PM 27.8720 -82.4800 162° South 462 532 36,100 -2,760 Descending FlightAware
08:52PM 27.7750 -82.4450 162° South 477 549 33,100 -3,300 Descending FlightAware
08:53PM 27.6920 -82.4140 162° South 467 537 31,500 -2,520 Descending FlightAware
08:54PM 27.6020 -82.3810 162° South 456 525 29,600 -2,400 Descending FlightAware
08:55PM 27.5230 -82.3520 162° South 452 520 28,100 -1,200 Descending FlightAware
08:55PM 27.4450 -82.3230 162° South 456 525 28,000 -120 Descending FlightAware
08:56PM 27.3500 -82.2890 162° South 457 526 28,000  Level FlightAware
08:57PM 27.2810 -82.2630 161° South 456 525 28,000  Level FlightAware
08:57PM 27.1970 -82.2330 162° South 456 525 28,000  Level FlightAware
08:58PM 27.1080 -82.2000 162° South 457 526 28,000  Level FlightAware
08:59PM 27.0290 -82.1720 162° South 458 527 28,000  Level FlightAware
08:59PM 26.9440 -82.1410 162° South 458 527 28,000  Level FlightAware
09:00PM 26.8530 -82.1000 158° South 459 528 28,000  Level FlightAware
09:01PM 26.8060 -82.0470 135° Southeast 472 543 28,000  Level FlightAware
09:01PM 26.7550 -81.9680 126° Southeast 477 549 28,000 -900 Level FlightAware
09:02PM 26.6970 -81.8770 125° Southeast 474 545 26,800 -2,220 Descending FlightAware
09:03PM 26.6460 -81.7990 126° Southeast 465 535 24,900 -2,640 Descending FlightAware
09:03PM 26.6030 -81.7320 126° Southeast 448 516 23,500 -2,400 Descending FlightAware
09:04PM 26.5420 -81.6370 126° Southeast 437 503 21,500 -2,700 Descending FlightAware
09:05PM 26.4960 -81.5670 126° Southeast 437 503 19,500 -2,940 Descending FlightAware
09:06PM 26.4430 -81.4860 126° Southeast 432 497 17,400 -3,300 Descending FlightAware
09:06PM 26.3950 -81.4120 126° Southeast 420 483 14,900 -3,780 Descending FlightAware
09:07PM 26.3560 -81.3530 126° Southeast 413 475 12,700 -2,400 Descending FlightAware
09:08PM 26.3130 -81.2860 126° Southeast 413 475 11,700 -1,980 Descending FlightAware
09:08PM 26.2620 -81.2080 126° Southeast 329 379 9,800 -1,860 Descending FlightAware
09:09PM 26.2380 -81.1710 126° Southeast 307 353 9,400 -540 Descending FlightAware
09:09PM 26.2090 -81.1240 125° Southeast 307 353 9,200 -180 Descending FlightAware
09:10PM 26.1880 -81.0910 125° Southeast 307 353 9,200  Level FlightAware
09:10PM 26.1810 -81.0800 125° Southeast 307 353 9,200 -3,600 Level FlightAware
09:11PM 26.1580 -81.0240 115° Southeast 293 337 6,800 -3,120 Descending FlightAware
09:11PM 26.1410 -80.9820 114° Southeast 289 333 6,100 -1,200 Descending FlightAware
09:11PM 26.1330 -80.9630 115° Southeast 286 329 5,900 -480 Descending FlightAware
09:12PM 26.1200 -80.9290 113° Southeast 282 325 5,800 -120 Descending FlightAware
09:12PM 26.1050 -80.8920 114° Southeast 279 321 5,800  Level FlightAware
09:13PM 26.0930 -80.8600 113° Southeast 282 325 5,800  Level FlightAware
09:13PM 26.0800 -80.8190 109° East 284 327 5,800  Level FlightAware
09:14PM 26.0740 -80.7840 101° East 284 327 5,800  Level FlightAware
09:14PM 26.0780 -80.7540 82° East 283 326 5,800 -240 Level FlightAware
09:15PM 26.0780 -80.6770 90° East 284 327 5,500 -660 Descending FlightAware
09:15PM 26.0790 -80.6400 88° East 280 322 5,000 -600 Descending FlightAware
09:16PM 26.0780 -80.5770 91° East 266 306 4,800 -180 Descending FlightAware
09:16PM 26.0790 -80.5450 88° East 259 298 4,800  Level FlightAware
09:17PM 26.0790 -80.4850 90° East 248 285 4,800 -300 Level FlightAware
09:18PM 26.0780 -80.4540 92° East 235 270 4,500 -840 Descending FlightAware
09:19PM 26.0780 -80.3890 90° East 225 259 3,700 -960 Descending FlightAware
09:19PM 26.0780 -80.3540 90° East 222 255 3,200 -1,140 Descending FlightAware
09:20PM 26.0780 -80.3100 90° East 221 254 2,400 -1,200 Descending FlightAware
09:20PM 26.0780 -80.2760 90° East 213 245 1,800 -1,080 Descending FlightAware
09:21PM 26.0770 -80.2360 92° East 176 203 1,200 -1,080 Descending FlightAware
09:21PM 26.0770 -80.2110 90° East 156 180 600 -720 Descending FlightAware
09:22PM 26.0770 -80.1690 90° East 145 167 200 -480 Descending FlightAware